CheckWX is a tool to help pilots better visualize weather data.  It is not intended as a substitute for an official pre-flight weather briefing.

20:33:58 UTC

KIFA METAR
Iowa Falls Municipal Airport
Iowa Falls, Iowa, USA
Current

19 mins ago

KIFA 182015Z AUTO 30007KT 10SM CLR M08/M12 A3047 RMK AO2 T10831121
Observed
Feb-18 @ 20:15 UTC
Wind
  • 300° at 7 KTS
Visibility
10 SM
Flight Rules
VFR
Cloud Levels
  • Clear skies
Temperature
-8°C / 18°F
Dewpoint
-12°C / 10°F
Humidity
73%
Altimeter
30.47" Hg
Pressure
1031.81 hPa
Previous

39 mins ago

KIFA 181955Z AUTO 32005KT 10SM CLR M08/M12 A3046 RMK AO2 T10821121
Observed
Feb-18 @ 19:55 UTC
Wind
  • 320° at 5 KTS
Visibility
10 SM
Flight Rules
VFR
Cloud Levels
  • Clear skies
Temperature
-8°C / 18°F
Dewpoint
-12°C / 10°F
Humidity
73%
Altimeter
30.46" Hg
Pressure
1031.51 hPa
Previous

59 mins ago

KIFA 181935Z AUTO 32005KT 10SM CLR M08/M12 A3046 RMK AO2 T10851124
Observed
Feb-18 @ 19:35 UTC
Wind
  • 320° at 5 KTS
Visibility
10 SM
Flight Rules
VFR
Cloud Levels
  • Clear skies
Temperature
-9°C / 16°F
Dewpoint
-12°C / 10°F
Humidity
79%
Altimeter
30.46" Hg
Pressure
1031.51 hPa